sim
Sign-in with your pilot id or email,
or register
Callsign
Passwort

Schedule Details

Flight Number: EWG88 (1)
Departure: Cologne Bonn Airport (EDDK) at 06:50
Arrival: Munich Airport (EDDM) at 08:00
Route: Eurowings Passenger Schedule. Enter filed route here before submitting Pirep.

Weather Information
Getting current METAR information for EDDK 191150Z 15010KT 110V180 CAVOK 24/06 Q1018 NOSIG
Getting current METAR information for EDDM 191150Z VRB04KT CAVOK 20/12 Q1019 NOSIG

Schedule Frequency

Route Map